createdAt,value
2018-06-16T00:01:49.935Z,98461.93
2018-06-16T00:04:02.316Z,98460.05
2018-06-16T00:06:14.928Z,98468.34
2018-06-16T00:08:27.279Z,98468.95
2018-06-16T00:10:39.754Z,98467.52
2018-06-16T00:12:52.096Z,98472.36
2018-06-16T00:15:04.520Z,98471.14
2018-06-16T00:17:16.869Z,98466.09
2018-06-16T00:19:29.258Z,98463.73
2018-06-16T00:21:41.613Z,98462.52
2018-06-16T00:23:53.942Z,98457.16
2018-06-16T00:26:06.228Z,98457.42
2018-06-16T00:28:18.722Z,98455.02
2018-06-16T00:30:31.054Z,98455.11
2018-06-16T00:32:43.394Z,98454.50
2018-06-16T00:34:55.737Z,98451.75
2018-06-16T00:37:08.154Z,98449.00
2018-06-16T00:39:20.690Z,98448.13
2018-06-16T00:41:33.096Z,98450.84
2018-06-16T00:43:45.503Z,98452.63
2018-06-16T00:45:57.838Z,98458.55
2018-06-16T00:48:10.146Z,98449.88
2018-06-16T00:50:22.489Z,98454.27
2018-06-16T00:52:34.826Z,98454.39
2018-06-16T00:54:47.191Z,98451.26
2018-06-16T00:57:10.834Z,98448.50
2018-06-16T00:59:23.162Z,98452.64
2018-06-16T01:01:35.550Z,98443.97
2018-06-16T01:03:47.945Z,98450.15
2018-06-16T01:06:00.266Z,98448.66
2018-06-16T01:08:12.750Z,98443.16
2018-06-16T01:10:25.290Z,98438.86
2018-06-16T01:12:37.993Z,98442.52
2018-06-16T01:14:50.313Z,98442.99
2018-06-16T01:17:02.610Z,98448.69
2018-06-16T01:19:15.206Z,98437.94
2018-06-16T01:21:27.534Z,98440.26
2018-06-16T01:23:39.928Z,98437.98
2018-06-16T01:25:52.322Z,98439.50
2018-06-16T01:28:04.745Z,98441.97
2018-06-16T01:30:17.073Z,98439.57
2018-06-16T01:32:29.430Z,98438.03
2018-06-16T01:34:41.797Z,98441.00
2018-06-16T01:36:54.158Z,98435.51
2018-06-16T01:39:07.918Z,98430.41
2018-06-16T01:41:20.327Z,98435.01
2018-06-16T01:43:32.810Z,98428.42
2018-06-16T01:45:45.246Z,98426.14
2018-06-16T01:47:57.582Z,98420.98
2018-06-16T01:50:09.925Z,98424.64
2018-06-16T01:52:22.370Z,98430.33
2018-06-16T01:54:34.721Z,98425.85
2018-06-16T01:56:47.295Z,98424.09
2018-06-16T01:58:59.682Z,98425.94
2018-06-16T02:01:12.047Z,98418.45
2018-06-16T02:03:24.361Z,98420.50
2018-06-16T02:05:36.742Z,98422.52
2018-06-16T02:07:49.113Z,98428.72
2018-06-16T02:10:01.457Z,98427.67
2018-06-16T02:12:13.762Z,98424.80
2018-06-16T02:14:26.151Z,98421.22
2018-06-16T02:16:38.753Z,98417.78
2018-06-16T02:18:51.058Z,98423.66
2018-06-16T02:21:03.419Z,98415.41
2018-06-16T02:23:15.861Z,98413.36
2018-06-16T02:25:28.219Z,98411.08
2018-06-16T02:27:40.574Z,98412.80
2018-06-16T02:29:52.918Z,98413.27
2018-06-16T02:32:05.301Z,98412.59
2018-06-16T02:34:17.740Z,98415.47
2018-06-16T02:36:30.111Z,98414.52
2018-06-16T02:38:42.429Z,98413.36
2018-06-16T02:40:54.754Z,98424.91
2018-06-16T02:43:07.099Z,98425.97
2018-06-16T02:45:19.435Z,98425.11
2018-06-16T02:47:31.849Z,98427.28
2018-06-16T02:49:44.153Z,98422.05
2018-06-16T02:51:56.477Z,98417.40
2018-06-16T02:54:08.806Z,98425.73
2018-06-16T02:56:21.334Z,98424.48
2018-06-16T02:58:33.801Z,98429.05
2018-06-16T03:00:46.143Z,98419.70
2018-06-16T03:02:58.549Z,98416.98
2018-06-16T03:05:10.934Z,98418.66
2018-06-16T03:07:23.320Z,98418.02
2018-06-16T03:09:35.823Z,98415.19
2018-06-16T03:11:48.218Z,98411.08
2018-06-16T03:14:00.590Z,98415.05
2018-06-16T03:16:13.191Z,98415.56
2018-06-16T03:18:25.651Z,98419.48
2018-06-16T03:20:38.154Z,98418.92
2018-06-16T03:22:50.482Z,98415.00
2018-06-16T03:25:02.858Z,98423.58
2018-06-16T03:27:15.378Z,98426.34
2018-06-16T03:29:27.742Z,98426.69
2018-06-16T03:31:40.079Z,98425.44
2018-06-16T03:33:52.531Z,98423.30
2018-06-16T03:36:04.990Z,98425.38
2018-06-16T03:38:17.300Z,98429.09
2018-06-16T03:40:29.599Z,98422.30
2018-06-16T03:42:41.937Z,98424.31
2018-06-16T03:44:54.279Z,98425.17
2018-06-16T03:47:06.624Z,98426.68
2018-06-16T03:49:18.987Z,98424.91
2018-06-16T03:51:31.390Z,98429.57
2018-06-16T03:53:43.730Z,98431.11
2018-06-16T03:55:56.079Z,98432.25
2018-06-16T03:58:08.412Z,98433.16
2018-06-16T04:00:21.047Z,98435.38
2018-06-16T04:02:33.403Z,98430.83
2018-06-16T04:04:45.721Z,98434.70
2018-06-16T04:06:58.201Z,98443.58
2018-06-16T04:09:10.910Z,98452.46
2018-06-16T04:11:23.333Z,98446.43
2018-06-16T04:13:35.730Z,98448.87
2018-06-16T04:15:48.121Z,98447.86
2018-06-16T04:18:00.471Z,98447.09
2018-06-16T04:20:12.818Z,98449.17
2018-06-16T04:22:25.244Z,98449.84
2018-06-16T04:24:37.629Z,98444.08
2018-06-16T04:26:49.983Z,98448.28
2018-06-16T04:29:02.386Z,98451.36
2018-06-16T04:31:14.818Z,98445.14
2018-06-16T04:33:27.166Z,98448.77
2018-06-16T04:35:39.525Z,98441.69
2018-06-16T04:37:52.786Z,98449.02
2018-06-16T04:40:05.169Z,98455.98
2018-06-16T04:42:17.534Z,98454.23
2018-06-16T04:44:29.850Z,98454.40
2018-06-16T04:46:42.282Z,98449.52
2018-06-16T04:48:55.490Z,98444.09
2018-06-16T04:51:07.926Z,98448.04
2018-06-16T04:53:20.214Z,98449.13
2018-06-16T04:55:32.629Z,98451.09
2018-06-16T04:57:44.954Z,98455.13
2018-06-16T04:59:57.432Z,98454.31
2018-06-16T05:02:09.771Z,98452.07
2018-06-16T05:04:22.110Z,98453.59
2018-06-16T05:06:34.478Z,98454.08
2018-06-16T05:08:46.849Z,98449.67
2018-06-16T05:10:59.203Z,98457.91
2018-06-16T05:13:11.555Z,98455.04
2018-06-16T05:15:23.904Z,98453.72
2018-06-16T05:17:36.330Z,98452.41
2018-06-16T05:19:48.737Z,98449.19
2018-06-16T05:22:01.151Z,98446.44
2018-06-16T05:24:13.541Z,98441.44
2018-06-16T05:26:25.989Z,98441.16
2018-06-16T05:28:38.423Z,98438.02
2018-06-16T05:30:50.818Z,98435.19
2018-06-16T05:33:03.221Z,98436.36
2018-06-16T05:35:15.594Z,98433.78
2018-06-16T05:37:28.006Z,98432.41
2018-06-16T05:39:40.345Z,98438.00
2018-06-16T05:41:52.783Z,98437.27
2018-06-16T05:44:05.341Z,98431.13
2018-06-16T05:46:17.677Z,98437.42
2018-06-16T05:48:30.062Z,98431.38
2018-06-16T05:50:42.544Z,98433.50
2018-06-16T05:52:54.882Z,98430.54
2018-06-16T05:55:07.526Z,98431.54
2018-06-16T05:57:19.885Z,98434.48
2018-06-16T05:59:32.353Z,98444.08
2018-06-16T06:01:44.746Z,98440.13
2018-06-16T06:03:57.355Z,98443.03
2018-06-16T06:06:09.738Z,98438.27
2018-06-16T06:08:22.131Z,98441.44
2018-06-16T06:10:34.625Z,98444.16
2018-06-16T06:12:47.034Z,98436.50
2018-06-16T06:14:59.423Z,98440.05
2018-06-16T06:17:11.802Z,98440.52
2018-06-16T06:19:24.221Z,98436.19
2018-06-16T06:21:36.597Z,98437.78
2018-06-16T06:23:48.911Z,98434.89
2018-06-16T06:26:01.510Z,98444.77
2018-06-16T06:28:13.841Z,98438.45
2018-06-16T06:30:26.682Z,98435.95
2018-06-16T06:32:45.620Z,98441.05
2018-06-16T06:34:58.065Z,98447.30
2018-06-16T06:37:10.494Z,98443.64
2018-06-16T06:39:22.801Z,98450.41
2018-06-16T06:41:35.170Z,98447.11
2018-06-16T06:43:47.562Z,98448.97
2018-06-16T06:46:00.258Z,98448.02
2018-06-16T06:48:12.793Z,98446.73
2018-06-16T06:50:25.206Z,98450.41
2018-06-16T06:52:37.550Z,98442.98
2018-06-16T06:54:49.984Z,98448.02
2018-06-16T06:57:02.344Z,98451.54
2018-06-16T06:59:14.690Z,98447.63
2018-06-16T07:01:27.137Z,98443.98
2018-06-16T07:03:39.529Z,98441.95
2018-06-16T07:05:52.041Z,98441.05
2018-06-16T07:08:04.970Z,98438.81
2018-06-16T07:10:17.321Z,98441.20
2018-06-16T07:12:29.976Z,98445.36
2018-06-16T07:14:42.330Z,98445.72
2018-06-16T07:16:54.688Z,98439.63
2018-06-16T07:19:07.378Z,98439.95
2018-06-16T07:21:19.777Z,98442.62
2018-06-16T07:23:32.263Z,98442.45
2018-06-16T07:25:44.622Z,98438.14
2018-06-16T07:27:57.023Z,98438.58
2018-06-16T07:30:09.487Z,98438.03
2018-06-16T07:32:21.808Z,98437.22
2018-06-16T07:34:34.255Z,98433.05
2018-06-16T07:36:46.673Z,98429.67
2018-06-16T07:38:59.432Z,98431.83
2018-06-16T07:41:11.831Z,98430.84
2018-06-16T07:43:24.195Z,98419.41
2018-06-16T07:45:36.558Z,98420.44
2018-06-16T07:47:48.992Z,98420.52
2018-06-16T07:50:01.346Z,98419.19
2018-06-16T07:52:13.664Z,98424.19
2018-06-16T07:54:26.191Z,98421.30
2018-06-16T07:56:38.652Z,98421.14
2018-06-16T07:58:50.986Z,98425.44
2018-06-16T08:01:03.470Z,98417.09
2018-06-16T08:03:15.833Z,98415.52
2018-06-16T08:05:28.203Z,98418.30
2018-06-16T08:07:40.571Z,98418.28
2018-06-16T08:09:52.950Z,98420.38
2018-06-16T08:12:06.059Z,98414.98
2018-06-16T08:14:18.397Z,98416.94
2018-06-16T08:16:30.878Z,98414.14
2018-06-16T08:18:43.259Z,98409.64
2018-06-16T08:20:55.614Z,98411.38
2018-06-16T08:23:07.958Z,98406.65
2018-06-16T08:25:20.354Z,98405.84
2018-06-16T08:27:32.715Z,98406.98
2018-06-16T08:29:45.068Z,98410.19
2018-06-16T08:31:57.443Z,98405.55
2018-06-16T08:34:09.794Z,98409.02
2018-06-16T08:36:22.422Z,98406.36
2018-06-16T08:38:34.772Z,98405.70
2018-06-16T08:40:47.155Z,98408.53
2018-06-16T08:42:59.681Z,98403.05
2018-06-16T08:45:12.047Z,98409.41
2018-06-16T08:47:24.462Z,98409.64
2018-06-16T08:49:36.955Z,98404.03
2018-06-16T08:51:49.340Z,98410.98
2018-06-16T08:54:01.667Z,98413.25
2018-06-16T08:56:14.030Z,98407.20
2018-06-16T08:58:26.636Z,98406.48
2018-06-16T09:00:39.030Z,98407.63
2018-06-16T09:02:51.537Z,98412.42
2018-06-16T09:05:03.874Z,98409.77
2018-06-16T09:07:16.231Z,98415.96
2018-06-16T09:09:28.711Z,98419.15
2018-06-16T09:11:41.074Z,98416.64
2018-06-16T09:13:53.475Z,98417.19
2018-06-16T09:16:06.077Z,98416.80
2018-06-16T09:18:18.481Z,98417.23
2018-06-16T09:20:31.018Z,98415.91
2018-06-16T09:22:43.414Z,98418.98
2018-06-16T09:24:55.767Z,98421.69
2018-06-16T09:27:08.154Z,98416.37
2018-06-16T09:29:20.542Z,98410.46
2018-06-16T09:31:32.933Z,98406.72
2018-06-16T09:33:45.394Z,98406.41
2018-06-16T09:35:57.993Z,98403.01
2018-06-16T09:38:10.486Z,98401.78
2018-06-16T09:40:22.900Z,98395.95
2018-06-16T09:42:35.270Z,98393.75
2018-06-16T09:44:47.714Z,98400.28
2018-06-16T09:47:00.105Z,98406.55
2018-06-16T09:49:12.478Z,98395.36
2018-06-16T09:51:25.681Z,98402.09
2018-06-16T09:53:38.064Z,98396.80
2018-06-16T09:55:50.486Z,98401.85
2018-06-16T09:58:02.958Z,98395.50
2018-06-16T10:00:20.897Z,98394.95
2018-06-16T10:02:33.348Z,98396.12
2018-06-16T10:04:45.699Z,98400.37
2018-06-16T10:06:58.070Z,98403.89
2018-06-16T10:09:10.846Z,98403.88
2018-06-16T10:11:23.304Z,98394.02
2018-06-16T10:13:35.678Z,98391.08
2018-06-16T10:15:48.335Z,98390.41
2018-06-16T10:18:00.733Z,98391.28
2018-06-16T10:20:13.225Z,98381.80
2018-06-16T10:22:25.732Z,98390.78
2018-06-16T10:24:38.166Z,98380.53
2018-06-16T10:26:50.550Z,98392.09
2018-06-16T10:29:02.987Z,98386.47
2018-06-16T10:31:15.354Z,98386.04
2018-06-16T10:33:27.809Z,98383.82
2018-06-16T10:35:40.156Z,98381.33
2018-06-16T10:37:52.699Z,98376.17
2018-06-16T10:40:05.142Z,98376.69
2018-06-16T10:42:17.486Z,98380.09
2018-06-16T10:44:29.993Z,98377.13
2018-06-16T10:46:42.367Z,98367.44
2018-06-16T10:48:54.830Z,98372.86
2018-06-16T10:51:07.438Z,98369.13
2018-06-16T10:53:19.870Z,98369.85
2018-06-16T10:55:32.286Z,98369.45
2018-06-16T10:57:44.677Z,98368.33
2018-06-16T10:59:57.087Z,98360.34
2018-06-16T11:02:09.448Z,98365.72
2018-06-16T11:04:21.891Z,98356.55
2018-06-16T11:06:34.298Z,98355.85
2018-06-16T11:08:46.672Z,98357.86
2018-06-16T11:10:59.051Z,98348.16
2018-06-16T11:13:11.967Z,98351.34
2018-06-16T11:15:24.440Z,98349.03
2018-06-16T11:17:36.951Z,98347.66
2018-06-16T11:19:49.403Z,98340.98
2018-06-16T11:22:01.846Z,98342.09
2018-06-16T11:24:14.289Z,98340.05
2018-06-16T11:26:26.731Z,98338.61
2018-06-16T11:28:39.202Z,98332.76
2018-06-16T11:30:51.566Z,98326.31
2018-06-16T11:33:03.961Z,98325.77
2018-06-16T11:35:16.689Z,98316.75
2018-06-16T11:37:29.039Z,98324.21
2018-06-16T11:39:41.447Z,98319.81
2018-06-16T11:41:53.889Z,98316.72
2018-06-16T11:44:06.288Z,98306.86
2018-06-16T11:46:18.754Z,98310.07
2018-06-16T11:48:31.206Z,98307.23
2018-06-16T11:50:43.617Z,98306.02
2018-06-16T11:52:55.931Z,98301.98
2018-06-16T11:55:08.315Z,98298.61
2018-06-16T11:57:20.745Z,98296.52
2018-06-16T11:59:33.178Z,98301.16
2018-06-16T12:01:45.537Z,98297.98
2018-06-16T12:03:57.997Z,98292.66
2018-06-16T12:06:10.484Z,98291.11
2018-06-16T12:08:22.978Z,98285.73
2018-06-16T12:10:35.347Z,98284.95
2018-06-16T12:12:47.703Z,98284.26
2018-06-16T12:15:00.074Z,98279.91
2018-06-16T12:17:12.687Z,98276.38
2018-06-16T12:19:25.042Z,98276.36
2018-06-16T12:21:37.438Z,98281.56
2018-06-16T12:23:49.908Z,98273.64
2018-06-16T12:26:02.391Z,98274.33
2018-06-16T12:28:14.850Z,98275.96
2018-06-16T12:30:27.260Z,98274.59
2018-06-16T12:32:39.834Z,98273.27
2018-06-16T12:34:52.462Z,98274.34
2018-06-16T12:37:04.956Z,98270.36
2018-06-16T12:39:17.526Z,98265.92
2018-06-16T12:41:30.118Z,98264.53
2018-06-16T12:43:42.486Z,98266.44
2018-06-16T12:45:54.874Z,98267.36
2018-06-16T12:48:07.346Z,98267.29
2018-06-16T12:50:19.817Z,98272.41
2018-06-16T12:52:32.285Z,98269.20
2018-06-16T12:54:44.650Z,98264.09
2018-06-16T12:56:57.032Z,98265.17
2018-06-16T12:59:09.350Z,98265.77
2018-06-16T13:01:21.893Z,98269.59
2018-06-16T13:03:34.250Z,98268.25
2018-06-16T13:05:46.657Z,98267.38
2018-06-16T13:07:59.082Z,98264.28
2018-06-16T13:10:11.398Z,98270.98
2018-06-16T13:12:23.891Z,98256.39
2018-06-16T13:14:36.442Z,98258.89
2018-06-16T13:16:48.881Z,98253.92
2018-06-16T13:19:01.422Z,98247.82
2018-06-16T13:21:13.749Z,98246.05
2018-06-16T13:23:26.098Z,98244.26
2018-06-16T13:25:38.692Z,98250.56
2018-06-16T13:27:51.110Z,98249.92
2018-06-16T13:30:03.690Z,98249.97
2018-06-16T13:32:16.075Z,98246.49
2018-06-16T13:34:28.579Z,98249.13
2018-06-16T13:36:40.939Z,98247.82
2018-06-16T13:38:53.379Z,98244.77
2018-06-16T13:41:05.832Z,98246.11
2018-06-16T13:43:18.282Z,98249.68
2018-06-16T13:45:30.699Z,98242.20
2018-06-16T13:47:43.213Z,98250.25
2018-06-16T13:49:55.615Z,98248.34
2018-06-16T13:52:07.982Z,98242.93
2018-06-16T13:54:20.401Z,98245.27
2018-06-16T13:56:32.796Z,98244.44
2018-06-16T13:58:45.390Z,98244.18
2018-06-16T14:00:57.844Z,98243.31
2018-06-16T14:03:10.297Z,98237.20
2018-06-16T14:05:22.832Z,98237.54
2018-06-16T14:07:35.175Z,98239.41
2018-06-16T14:09:47.527Z,98237.25
2018-06-16T14:12:00.024Z,98239.41
2018-06-16T14:14:12.402Z,98238.92
2018-06-16T14:16:24.798Z,98240.31
2018-06-16T14:18:37.211Z,98244.78
2018-06-16T14:20:49.562Z,98243.23
2018-06-16T14:23:01.902Z,98241.09
2018-06-16T14:25:14.284Z,98245.09
2018-06-16T14:27:26.774Z,98244.48
2018-06-16T14:29:39.395Z,98244.56
2018-06-16T14:31:51.765Z,98238.59
2018-06-16T14:34:04.168Z,98244.88
2018-06-16T14:36:16.598Z,98242.38
2018-06-16T14:38:29.031Z,98244.53
2018-06-16T14:40:41.411Z,98241.04
2018-06-16T14:42:53.837Z,98240.40
2018-06-16T14:45:06.236Z,98237.34
2018-06-16T14:47:18.699Z,98232.41
2018-06-16T14:49:31.180Z,98234.59
2018-06-16T14:51:43.668Z,98238.72
2018-06-16T14:53:56.295Z,98231.67
2018-06-16T14:56:08.655Z,98233.95
2018-06-16T14:58:25.251Z,98236.73
2018-06-16T15:00:37.638Z,98229.56
2018-06-16T15:02:50.042Z,98235.80
2018-06-16T15:05:02.569Z,98233.20
2018-06-16T15:07:14.814Z,98236.95
2018-06-16T15:09:27.327Z,98239.54
2018-06-16T15:11:39.658Z,98232.44
2018-06-16T15:13:52.068Z,98236.64
2018-06-16T15:16:04.703Z,98238.62
2018-06-16T15:18:17.105Z,98228.50
2018-06-16T15:20:29.553Z,98227.31
2018-06-16T15:22:41.959Z,98225.31
2018-06-16T15:24:54.397Z,98225.80
2018-06-16T15:27:06.779Z,98225.55
2018-06-16T15:29:19.157Z,98220.42
2018-06-16T15:31:31.462Z,98224.02
2018-06-16T15:33:43.995Z,98220.66
2018-06-16T15:35:56.379Z,98215.52
2018-06-16T15:38:08.717Z,98220.38
2018-06-16T15:40:21.185Z,98215.92
2018-06-16T15:42:33.596Z,98210.13
2018-06-16T15:44:46.130Z,98217.98
2018-06-16T15:46:58.594Z,98214.30
2018-06-16T15:49:11.017Z,98211.88
2018-06-16T15:51:23.466Z,98212.74
2018-06-16T15:53:35.825Z,98209.09
2018-06-16T15:55:48.210Z,98207.06
2018-06-16T15:58:00.535Z,98209.61
2018-06-16T16:00:12.978Z,98207.50
2018-06-16T16:02:25.353Z,98209.52
2018-06-16T16:04:37.734Z,98211.28
2018-06-16T16:06:50.113Z,98208.88
2018-06-16T16:09:03.015Z,98204.79
2018-06-16T16:11:15.354Z,98203.89
2018-06-16T16:13:27.723Z,98205.70
2018-06-16T16:15:40.124Z,98201.48
2018-06-16T16:17:52.487Z,98205.56
2018-06-16T16:20:05.024Z,98207.92
2018-06-16T16:22:17.374Z,98203.93
2018-06-16T16:24:29.814Z,98201.95
2018-06-16T16:26:42.186Z,98203.37
2018-06-16T16:28:54.610Z,98205.23
2018-06-16T16:31:06.975Z,98200.03
2018-06-16T16:33:19.505Z,98200.68
2018-06-16T16:35:31.846Z,98204.03
2018-06-16T16:37:44.258Z,98199.34
2018-06-16T16:39:56.666Z,98203.72
2018-06-16T16:42:09.042Z,98201.44
2018-06-16T16:44:21.594Z,98202.78
2018-06-16T16:46:33.950Z,98202.23
2018-06-16T16:48:46.361Z,98202.28
2018-06-16T16:50:58.824Z,98202.80
2018-06-16T16:53:11.235Z,98204.92
2018-06-16T16:55:23.867Z,98208.55
2018-06-16T16:57:36.216Z,98211.59
2018-06-16T16:59:48.723Z,98215.92
2018-06-16T17:02:01.170Z,98210.26
2018-06-16T17:04:13.598Z,98215.10
2018-06-16T17:06:25.982Z,98212.92
2018-06-16T17:08:38.664Z,98211.04
2018-06-16T17:10:51.049Z,98213.06
2018-06-16T17:13:03.440Z,98215.03
2018-06-16T17:15:15.803Z,98212.03
2018-06-16T17:17:28.216Z,98207.80
2018-06-16T17:19:40.533Z,98207.94
2018-06-16T17:21:53.166Z,98210.19
2018-06-16T17:24:05.527Z,98205.83
2018-06-16T17:26:17.938Z,98207.36
2018-06-16T17:28:30.270Z,98206.09
2018-06-16T17:30:42.639Z,98205.95
2018-06-16T17:32:55.083Z,98208.48
2018-06-16T17:35:07.441Z,98206.39
2018-06-16T17:37:19.843Z,98215.19
2018-06-16T17:39:32.358Z,98212.45
2018-06-16T17:41:44.795Z,98217.16
2018-06-16T17:43:57.177Z,98219.00
2018-06-16T17:46:09.649Z,98218.42
2018-06-16T17:48:22.050Z,98213.86
2018-06-16T17:50:34.510Z,98215.50
2018-06-16T17:52:46.990Z,98217.85
2018-06-16T17:54:59.370Z,98212.34
2018-06-16T17:57:11.816Z,98214.27
2018-06-16T17:59:24.172Z,98214.81
2018-06-16T18:01:36.549Z,98221.58
2018-06-16T18:03:49.008Z,98216.86
2018-06-16T18:06:01.488Z,98225.84
2018-06-16T18:08:14.122Z,98224.38
2018-06-16T18:10:26.612Z,98224.80
2018-06-16T18:12:38.970Z,98225.16
2018-06-16T18:14:51.288Z,98232.15
2018-06-16T18:17:03.663Z,98233.89
2018-06-16T18:19:16.074Z,98232.56
2018-06-16T18:21:28.411Z,98231.91
2018-06-16T18:23:40.767Z,98233.91
2018-06-16T18:25:53.174Z,98236.16
2018-06-16T18:28:05.823Z,98236.41
2018-06-16T18:30:18.177Z,98239.19
2018-06-16T18:32:30.521Z,98232.94
2018-06-16T18:34:43.102Z,98237.03
2018-06-16T18:36:55.511Z,98237.03
2018-06-16T18:39:09.432Z,98235.80
2018-06-16T18:41:21.778Z,98232.17
2018-06-16T18:43:34.347Z,98238.84
2018-06-16T18:45:46.748Z,98244.55
2018-06-16T18:47:59.159Z,98242.56
2018-06-16T18:50:11.492Z,98246.59
2018-06-16T18:52:23.971Z,98243.94
2018-06-16T18:54:36.343Z,98244.95
2018-06-16T18:56:48.786Z,98242.97
2018-06-16T18:59:01.158Z,98246.13
2018-06-16T19:01:13.593Z,98252.81
2018-06-16T19:03:26.034Z,98249.07
2018-06-16T19:05:38.459Z,98250.21
2018-06-16T19:07:50.918Z,98256.02
2018-06-16T19:10:03.434Z,98257.41
2018-06-16T19:12:15.803Z,98257.31
2018-06-16T19:14:28.317Z,98260.34
2018-06-16T19:16:40.682Z,98259.89
2018-06-16T19:18:53.170Z,98265.77
2018-06-16T19:21:05.711Z,98268.97
2018-06-16T19:23:18.193Z,98270.14
2018-06-16T19:25:30.438Z,98277.66
2018-06-16T19:27:42.923Z,98274.86
2018-06-16T19:29:55.286Z,98274.88
2018-06-16T19:32:07.739Z,98278.00
2018-06-16T19:34:20.249Z,98278.68
2018-06-16T19:36:32.597Z,98284.13
2018-06-16T19:38:45.133Z,98290.48
2018-06-16T19:40:57.598Z,98290.81
2018-06-16T19:43:10.020Z,98288.31
2018-06-16T19:45:22.447Z,98292.94
2018-06-16T19:47:34.836Z,98295.59
2018-06-16T19:49:47.190Z,98297.58
2018-06-16T19:51:59.570Z,98297.55
2018-06-16T19:54:12.052Z,98298.23
2018-06-16T19:56:24.536Z,98296.23
2018-06-16T19:58:36.909Z,98305.45
2018-06-16T20:00:49.319Z,98307.76
2018-06-16T20:03:01.733Z,98308.58
2018-06-16T20:05:14.231Z,98306.94
2018-06-16T20:07:26.674Z,98316.43
2018-06-16T20:09:39.131Z,98315.91
2018-06-16T20:11:51.522Z,98318.34
2018-06-16T20:14:03.926Z,98315.81
2018-06-16T20:16:16.429Z,98317.39
2018-06-16T20:18:28.755Z,98320.64
2018-06-16T20:20:41.105Z,98317.63
2018-06-16T20:22:53.590Z,98321.52
2018-06-16T20:25:06.050Z,98320.45
2018-06-16T20:27:18.474Z,98318.78
2018-06-16T20:29:30.978Z,98322.22
2018-06-16T20:31:43.386Z,98323.66
2018-06-16T20:33:55.754Z,98327.97
2018-06-16T20:36:08.275Z,98325.97
2018-06-16T20:38:20.678Z,98331.83
2018-06-16T20:40:33.167Z,98329.79
2018-06-16T20:42:45.519Z,98333.06
2018-06-16T20:44:57.914Z,98332.07
2018-06-16T20:47:10.530Z,98332.20
2018-06-16T20:49:22.942Z,98340.13
2018-06-16T20:51:35.461Z,98333.06
2018-06-16T20:53:47.814Z,98331.87
2018-06-16T20:56:00.246Z,98340.28
2018-06-16T20:58:12.703Z,98345.86
2018-06-16T21:00:25.168Z,98339.40
2018-06-16T21:02:37.599Z,98344.71
2018-06-16T21:04:49.984Z,98343.88
2018-06-16T21:07:02.355Z,98342.56
2018-06-16T21:09:14.699Z,98344.55
2018-06-16T21:11:27.155Z,98343.45
2018-06-16T21:13:39.514Z,98350.75
2018-06-16T21:15:51.994Z,98345.04
2018-06-16T21:18:04.511Z,98352.63
2018-06-16T21:20:16.912Z,98352.63
2018-06-16T21:22:29.350Z,98348.63
2018-06-16T21:24:41.718Z,98351.64
2018-06-16T21:26:54.090Z,98353.12
2018-06-16T21:29:06.778Z,98351.59
2018-06-16T21:31:19.088Z,98355.56
2018-06-16T21:33:31.449Z,98346.69
2018-06-16T21:35:43.937Z,98346.20
2018-06-16T21:37:56.262Z,98349.03
2018-06-16T21:40:08.674Z,98347.34
2018-06-16T21:42:21.002Z,98342.08
2018-06-16T21:44:33.442Z,98344.02
2018-06-16T21:46:45.791Z,98333.80
2018-06-16T21:48:58.201Z,98341.02
2018-06-16T21:51:10.510Z,98343.45
2018-06-16T21:53:22.886Z,98349.78
2018-06-16T21:55:35.346Z,98342.16
2018-06-16T21:57:47.635Z,98348.09
2018-06-16T22:00:00.099Z,98346.77
2018-06-16T22:02:12.451Z,98347.73
2018-06-16T22:04:25.196Z,98352.54
2018-06-16T22:06:37.526Z,98347.98
2018-06-16T22:08:49.915Z,98354.95
2018-06-16T22:11:03.394Z,98354.41
2018-06-16T22:13:15.834Z,98350.05
2018-06-16T22:15:28.197Z,98356.50
2018-06-16T22:17:40.800Z,98352.64
2018-06-16T22:19:53.193Z,98358.02
2018-06-16T22:22:05.534Z,98361.77
2018-06-16T22:24:18.059Z,98358.63
2018-06-16T22:26:30.623Z,98361.63
2018-06-16T22:28:43.073Z,98363.08
2018-06-16T22:30:55.411Z,98369.28
2018-06-16T22:33:07.822Z,98365.41
2018-06-16T22:35:20.250Z,98366.34
2018-06-16T22:37:32.685Z,98370.86
2018-06-16T22:39:45.046Z,98370.36
2018-06-16T22:41:57.511Z,98372.66
2018-06-16T22:44:09.870Z,98374.41
2018-06-16T22:46:22.211Z,98377.98
2018-06-16T22:48:35.140Z,98378.37
2018-06-16T22:50:47.467Z,98381.21
2018-06-16T22:52:59.868Z,98387.58
2018-06-16T22:55:12.466Z,98387.47
2018-06-16T22:57:24.813Z,98380.67
2018-06-16T22:59:37.209Z,98385.60
2018-06-16T23:01:49.562Z,98387.08
2018-06-16T23:04:01.945Z,98382.97
2018-06-16T23:06:14.313Z,98380.55
2018-06-16T23:08:26.782Z,98387.28
2018-06-16T23:10:39.178Z,98387.89
2018-06-16T23:12:52.067Z,98390.31
2018-06-16T23:15:06.871Z,98391.08
2018-06-16T23:17:19.242Z,98386.30
2018-06-16T23:19:31.561Z,98393.36
2018-06-16T23:21:43.911Z,98388.59
2018-06-16T23:23:56.363Z,98391.30
2018-06-16T23:26:08.829Z,98382.37
2018-06-16T23:28:21.233Z,98389.89
2018-06-16T23:30:33.609Z,98389.98
2018-06-16T23:32:45.958Z,98397.23
2018-06-16T23:34:58.282Z,98399.53
2018-06-16T23:37:10.672Z,98399.66
2018-06-16T23:39:22.983Z,98412.53
2018-06-16T23:41:35.388Z,98409.30
2018-06-16T23:43:47.802Z,98407.44
2018-06-16T23:46:00.190Z,98413.93
2018-06-16T23:48:12.562Z,98410.60
2018-06-16T23:50:25.098Z,98416.69
2018-06-16T23:52:37.445Z,98414.61
2018-06-16T23:54:49.838Z,98411.22
2018-06-16T23:57:02.183Z,98413.17
2018-06-16T23:59:14.641Z,98407.14
